createdAt,value
2023-02-14T00:22:05.561Z,102244.03
2023-02-14T00:24:36.331Z,102244.03
2023-02-14T00:27:05.094Z,102243.50
2023-02-14T00:29:34.152Z,102238.09
2023-02-14T00:32:03.766Z,102238.53
2023-02-14T00:34:34.062Z,102242.28
2023-02-14T00:37:04.243Z,102234.50
2023-02-14T00:39:33.136Z,102212.81
2023-02-14T01:02:13.762Z,102234.41
2023-02-14T01:04:42.573Z,102234.41
2023-02-14T01:07:10.553Z,102228.62
2023-02-14T01:09:38.568Z,102220.28
2023-02-14T01:12:07.636Z,102223.44
2023-02-14T01:14:35.606Z,102225.69
2023-02-14T01:17:03.592Z,102202.66
2023-02-14T01:19:32.759Z,102218.06
2023-02-14T01:37:19.089Z,102216.03
2023-02-14T01:39:48.024Z,102216.03
2023-02-14T01:42:16.117Z,102210.44
2023-02-14T01:44:47.862Z,102215.50
2023-02-14T01:47:18.441Z,102210.28
2023-02-14T01:49:54.464Z,102206.16
2023-02-14T01:52:34.516Z,102191.03
2023-02-14T02:14:18.182Z,102173.16
2023-02-14T02:16:55.752Z,102173.16
2023-02-14T02:20:01.710Z,102177.88
2023-02-14T02:23:00.811Z,102174.47
2023-02-14T02:25:47.214Z,102166.72
2023-02-14T02:46:12.179Z,102160.56
2023-02-14T02:48:55.192Z,102160.56
2023-02-14T02:52:03.555Z,102151.72
2023-02-14T02:54:42.172Z,102167.81
2023-02-14T02:57:22.152Z,102162.81
2023-02-14T02:59:54.539Z,102156.38
2023-02-14T03:22:05.429Z,102155.47
2023-02-14T03:24:56.837Z,102159.75
2023-02-14T03:27:47.576Z,102154.34
2023-02-14T03:30:36.743Z,102156.63
2023-02-14T03:33:14.591Z,102158.72
2023-02-14T03:36:02.384Z,102161.69
2023-02-14T04:00:06.942Z,102152.88
2023-02-14T04:02:46.779Z,102152.88
2023-02-14T04:05:28.109Z,102168.44
2023-02-14T04:07:59.050Z,102166.59
2023-02-14T04:10:27.694Z,102161.53
2023-02-14T04:12:55.727Z,102164.00
2023-02-14T04:15:24.555Z,102166.75
2023-02-14T04:18:11.784Z,102161.38
2023-02-14T04:38:51.764Z,102149.69
2023-02-14T04:41:21.613Z,102149.69
2023-02-14T04:43:49.790Z,102152.16
2023-02-14T04:46:18.540Z,102146.09
2023-02-14T04:48:48.825Z,102144.66
2023-02-14T04:51:17.537Z,102140.28
2023-02-14T04:53:45.526Z,102138.87
2023-02-14T04:56:14.619Z,102139.34
2023-02-14T04:58:42.650Z,102137.41
2023-02-14T05:18:40.879Z,102145.75
2023-02-14T05:21:09.646Z,102145.75
2023-02-14T05:23:38.098Z,102147.31
2023-02-14T05:26:06.771Z,102143.06
2023-02-14T05:28:36.224Z,102155.63
2023-02-14T05:31:04.823Z,102152.41
2023-02-14T05:33:33.772Z,102143.22
2023-02-14T05:36:03.102Z,102158.47
2023-02-14T05:58:47.076Z,102161.38
2023-02-14T06:01:15.996Z,102161.38
2023-02-14T06:03:44.949Z,102172.31
2023-02-14T06:06:12.996Z,102173.19
2023-02-14T06:08:42.024Z,102171.00
2023-02-14T06:11:10.993Z,102177.44
2023-02-14T06:13:41.601Z,102170.97
2023-02-14T06:16:09.977Z,102175.00
2023-02-14T06:18:39.220Z,102176.19
2023-02-14T06:21:08.016Z,102172.34
2023-02-14T06:23:37.003Z,102179.56
2023-02-14T06:31:49.449Z,102181.84
2023-02-14T06:34:19.420Z,102181.78
2023-02-14T06:36:48.251Z,102184.56
2023-02-14T06:39:16.258Z,102151.28
2023-02-14T06:41:48.293Z,102155.03
2023-02-14T06:44:16.249Z,102192.16
2023-02-14T06:46:49.112Z,102165.69
2023-02-14T06:49:26.109Z,102182.47
2023-02-14T06:52:01.499Z,102181.25
2023-02-14T06:54:44.553Z,102182.97
2023-02-14T06:57:29.897Z,102188.09
2023-02-14T07:00:11.359Z,102185.31
2023-02-14T07:03:06.831Z,102190.72
2023-02-14T07:05:39.963Z,102185.47
2023-02-14T07:08:31.049Z,102179.25
2023-02-14T07:11:08.072Z,102180.59
2023-02-14T07:13:53.568Z,102181.94
2023-02-14T07:16:35.960Z,102185.25
2023-02-14T07:19:20.951Z,102185.47
2023-02-14T07:22:00.136Z,102191.03
2023-02-14T07:24:42.560Z,102199.53
2023-02-14T07:27:58.259Z,102187.69
2023-02-14T07:34:16.252Z,102181.09
2023-02-14T07:43:52.380Z,102199.16
2023-02-14T07:46:30.618Z,102202.53
2023-02-14T07:49:12.873Z,102199.25
2023-02-14T07:51:51.099Z,102195.50
2023-02-14T07:57:29.188Z,102197.28
2023-02-14T08:06:31.838Z,102199.47
2023-02-14T08:12:23.771Z,102193.69
2023-02-14T08:26:39.055Z,102202.63
2023-02-14T08:29:28.836Z,102201.84
2023-02-14T08:32:12.442Z,102202.81
2023-02-14T08:34:54.305Z,102204.75
2023-02-14T08:37:29.991Z,102192.31
2023-02-14T08:40:14.416Z,102198.88
2023-02-14T08:43:01.085Z,102202.13
2023-02-14T08:45:49.797Z,102199.75
2023-02-14T08:48:31.899Z,102192.22
2023-02-14T08:51:18.190Z,102206.59
2023-02-14T08:54:07.267Z,102209.75
2023-02-14T08:56:40.239Z,102208.31
2023-02-14T08:59:29.845Z,102206.97
2023-02-14T09:02:28.106Z,102203.28
2023-02-14T09:08:14.707Z,102211.91
2023-02-14T09:10:56.985Z,102213.09
2023-02-14T09:53:50.069Z,102221.41
2023-02-14T09:56:50.815Z,102221.41
2023-02-14T09:59:45.934Z,102223.81
2023-02-14T10:02:29.294Z,102224.28
2023-02-14T10:05:06.605Z,102223.19
2023-02-14T10:07:56.015Z,102219.13
2023-02-14T10:13:58.416Z,102218.53
2023-02-14T10:36:34.805Z,102210.38
2023-02-14T10:39:11.750Z,102210.00
2023-02-14T10:42:10.329Z,102204.91
2023-02-14T10:44:57.776Z,102199.81
2023-02-14T10:50:51.934Z,102204.13
2023-02-14T10:53:44.254Z,102205.56
2023-02-14T10:56:21.646Z,102204.72
2023-02-14T10:58:54.256Z,102190.44
2023-02-14T11:01:23.660Z,102189.41
2023-02-14T11:04:04.351Z,102199.63
2023-02-14T11:06:33.349Z,102199.13
2023-02-14T11:09:03.670Z,102199.06
2023-02-14T11:11:41.188Z,102201.34
2023-02-14T11:14:30.299Z,102183.47
2023-02-14T11:17:00.470Z,102194.25
2023-02-14T11:19:37.301Z,102182.63
2023-02-14T11:22:06.254Z,102204.28
2023-02-14T11:24:45.779Z,102201.56
2023-02-14T11:27:13.686Z,102186.81
2023-02-14T11:29:47.267Z,102207.75
2023-02-14T11:32:23.389Z,102190.44
2023-02-14T11:40:40.897Z,102189.97
2023-02-14T11:51:17.742Z,102193.69
2023-02-14T11:53:50.167Z,102193.81
2023-02-14T11:56:21.140Z,102185.03
2023-02-14T11:59:08.407Z,102195.72
2023-02-14T12:01:41.087Z,102192.50
2023-02-14T12:04:17.963Z,102192.16
2023-02-14T12:06:47.348Z,102184.97
2023-02-14T12:09:25.432Z,102185.13
2023-02-14T12:12:05.439Z,102175.03
2023-02-14T12:14:39.564Z,102183.31
2023-02-14T12:17:26.343Z,102177.56
2023-02-14T12:20:17.407Z,102161.38
2023-02-14T12:26:12.067Z,102164.75
2023-02-14T12:28:57.183Z,102170.38
2023-02-14T12:31:25.782Z,102151.38
2023-02-14T12:54:23.673Z,102143.78
2023-02-14T12:57:25.790Z,102144.34
2023-02-14T13:00:22.327Z,102148.97
2023-02-14T13:03:11.635Z,102145.31
2023-02-14T13:06:29.130Z,102142.25
2023-02-14T13:09:31.830Z,102136.62
2023-02-14T13:12:08.049Z,102129.94
2023-02-14T13:15:15.299Z,102135.41
2023-02-14T13:31:40.346Z,102136.72
2023-02-14T13:34:36.099Z,102136.72
2023-02-14T13:37:09.734Z,102145.22
2023-02-14T13:39:44.431Z,102147.19
2023-02-14T13:42:13.257Z,102145.34
2023-02-14T13:44:52.573Z,102150.91
2023-02-14T13:47:27.198Z,102141.44
2023-02-14T13:49:59.711Z,102138.53
2023-02-14T13:52:48.996Z,102136.97
2023-02-14T13:55:21.537Z,102137.81
2023-02-14T14:00:54.330Z,102126.56
2023-02-14T14:03:26.643Z,102139.50
2023-02-14T14:08:39.464Z,102139.16
2023-02-14T14:11:33.679Z,102142.66
2023-02-14T14:14:21.499Z,102141.00
2023-02-14T14:17:00.201Z,102144.91
2023-02-14T14:19:28.603Z,102132.63
2023-02-14T14:22:03.481Z,102136.66
2023-02-14T14:24:32.985Z,102137.72
2023-02-14T14:30:32.366Z,102127.25
2023-02-14T15:03:12.534Z,102103.47
2023-02-14T15:05:44.602Z,102134.78
2023-02-14T15:08:32.916Z,102134.25
2023-02-14T15:11:43.796Z,102135.81
2023-02-14T15:14:24.446Z,102137.25
2023-02-14T15:17:19.860Z,102137.06
2023-02-14T15:22:44.997Z,102145.00
2023-02-14T15:38:49.647Z,102138.41
2023-02-14T15:41:20.327Z,102138.41
2023-02-14T15:43:54.127Z,102144.34
2023-02-14T15:46:28.344Z,102140.72
2023-02-14T15:49:00.886Z,102141.91
2023-02-14T15:51:32.231Z,102141.34
2023-02-14T15:54:29.191Z,102149.00
2023-02-14T15:57:06.302Z,102141.53
2023-02-14T16:24:07.349Z,102153.72
2023-02-14T16:26:40.733Z,102153.72
2023-02-14T16:29:17.856Z,102161.38
2023-02-14T16:34:43.767Z,102167.81
2023-02-14T16:37:24.809Z,102174.72
2023-02-14T16:39:55.216Z,102178.16
2023-02-14T16:42:25.303Z,102171.47
2023-02-14T16:44:53.830Z,102179.63
2023-02-14T17:05:36.222Z,102186.03
2023-02-14T17:08:09.960Z,102183.50
2023-02-14T17:10:39.777Z,102188.38
2023-02-14T17:13:09.105Z,102151.69
2023-02-14T17:15:39.236Z,102183.38
2023-02-14T17:18:12.035Z,102200.88
2023-02-14T17:20:40.616Z,102200.44
2023-02-14T17:23:09.169Z,102209.53
2023-02-14T17:25:37.311Z,102200.34
2023-02-14T17:48:54.310Z,102202.09
2023-02-14T17:51:24.502Z,102205.97
2023-02-14T17:53:53.755Z,102210.66
2023-02-14T17:56:24.799Z,102207.28
2023-02-14T17:58:55.366Z,102199.06
2023-02-14T18:01:26.124Z,102214.97
2023-02-14T18:03:55.490Z,102200.38
2023-02-14T18:06:24.149Z,102211.19
2023-02-14T18:29:07.724Z,102190.38
2023-02-14T18:31:43.576Z,102190.38
2023-02-14T18:34:12.810Z,102190.56
2023-02-14T18:36:47.574Z,102201.09
2023-02-14T18:39:17.481Z,102200.28
2023-02-14T18:41:47.162Z,102188.41
2023-02-14T18:44:18.768Z,102097.41
2023-02-14T18:46:56.396Z,102189.13
2023-02-14T18:49:40.176Z,102185.94
2023-02-14T18:52:15.371Z,102195.53
2023-02-14T18:54:48.447Z,102146.94
2023-02-14T18:57:27.459Z,102201.09
2023-02-14T19:00:07.301Z,102205.41
2023-02-14T19:02:42.115Z,102196.75
2023-02-14T19:05:17.690Z,102202.44
2023-02-14T19:07:47.613Z,102193.78
2023-02-14T19:10:16.612Z,102189.75
2023-02-14T19:12:53.796Z,102198.78
2023-02-14T19:35:33.819Z,102193.13
2023-02-14T19:38:03.663Z,102193.13
2023-02-14T19:40:31.965Z,102203.09
2023-02-14T19:43:00.657Z,102198.28
2023-02-14T19:45:32.658Z,102190.50
2023-02-14T19:48:03.571Z,102194.97
2023-02-14T19:50:32.263Z,102197.59
2023-02-14T20:14:03.681Z,102191.84
2023-02-14T20:16:34.974Z,102191.84
2023-02-14T20:19:12.233Z,102202.00
2023-02-14T20:21:46.477Z,102192.81
2023-02-14T20:24:20.329Z,102194.50
2023-02-14T20:26:49.894Z,102201.50
2023-02-14T20:52:51.855Z,102191.19
2023-02-14T20:55:21.288Z,102191.19
2023-02-14T20:57:50.713Z,102189.00
2023-02-14T21:00:19.950Z,102190.84
2023-02-14T21:02:48.514Z,102193.44
2023-02-14T21:05:18.575Z,102193.34
2023-02-14T21:07:47.672Z,102189.03
2023-02-14T21:10:19.171Z,102199.72
2023-02-14T21:28:33.504Z,102199.59
2023-02-14T21:31:09.174Z,102199.59
2023-02-14T21:33:39.594Z,102199.16
2023-02-14T21:36:09.127Z,102196.94
2023-02-14T21:38:38.462Z,102203.88
2023-02-14T21:41:15.583Z,102202.13
2023-02-14T21:43:46.115Z,102189.37
2023-02-14T21:46:19.458Z,102190.09
2023-02-14T22:04:13.013Z,102193.81
2023-02-14T22:06:42.776Z,102193.81
2023-02-14T22:09:13.637Z,102192.06
2023-02-14T22:11:42.327Z,102201.66
2023-02-14T22:14:11.283Z,102176.59
2023-02-14T22:16:39.906Z,102194.91
2023-02-14T22:19:14.246Z,102191.59
2023-02-14T22:41:53.438Z,102200.78
2023-02-14T22:44:23.013Z,102200.78
2023-02-14T22:46:51.174Z,102198.88
2023-02-14T22:49:20.060Z,102205.19
2023-02-14T22:51:48.281Z,102200.69
2023-02-14T22:54:17.191Z,102209.00
2023-02-14T22:56:48.183Z,102199.63
2023-02-14T23:21:01.561Z,102206.13
2023-02-14T23:23:34.290Z,102206.13
2023-02-14T23:26:03.021Z,102215.44
2023-02-14T23:28:31.353Z,102199.75
2023-02-14T23:31:01.831Z,102215.41
2023-02-14T23:33:30.725Z,102209.31
2023-02-14T23:36:04.073Z,102205.59
2023-02-14T23:38:32.928Z,102209.97
